THY6606 VHHH-LTFM
Flight info
| Callsign | THY6606 |
|---|---|
| Flight time | N/A |
| Altitude | 27600 |
| Route | BEKOL A461 SHL W22 TEPID W24 OSNOV G586 QP B330 ELKAL W179 RIRKI W232 WFX W179 OMBON/K0935S0920 Y1 SADAN W186 KAMUD/K0917F300 L141 ZEZAM/K0906F320 L141 TISIB L163 SR N193 OGOLI T898 DARVA/N0491F320 B476 METKA L88 NIJAT N644 TETRO M10 SARPI UM10 GOKPA UL746 OLDUD UT643 ATPIX |
| Aircraft | B77L/H-SDE1E2E3FGHIJ2J3J4J5M1RWXY/LB1D1 |
Departure
| Time | N/A |
|---|---|
| Airport | Hong Kong International Airport (VHHH) |
Arrival
| Time | 2026-05-05 16:52 |
|---|---|
| Airport | İstanbul Airport (LTFM) |
| Time | Latitude | Longitude | Altitude | Speed | Heading |
|---|---|---|---|---|---|
| 2026-05-05 11:26 | 41.06847 | 81.19976 | 31780 ft | 470 kts | 285° |
| 2026-05-05 11:27 | 41.07747 | 81.15803 | 31767 ft | 470 kts | 285° |
| 2026-05-05 11:27 | 41.09527 | 81.07536 | 31784 ft | 470 kts | 285° |
| 2026-05-05 11:28 | 41.11317 | 80.99192 | 31770 ft | 471 kts | 285° |
| 2026-05-05 11:28 | 41.13102 | 80.90839 | 31787 ft | 471 kts | 285° |
| 2026-05-05 11:29 | 41.14881 | 80.82480 | 31788 ft | 471 kts | 285° |
| 2026-05-05 11:29 | 41.16642 | 80.74175 | 31788 ft | 470 kts | 285° |
| 2026-05-05 11:30 | 41.18406 | 80.65818 | 31789 ft | 470 kts | 285° |
| 2026-05-05 11:30 | 41.20168 | 80.57442 | 31787 ft | 471 kts | 285° |
| 2026-05-05 11:31 | 41.21913 | 80.49109 | 31787 ft | 472 kts | 285° |
| 2026-05-05 11:31 | 41.23667 | 80.40700 | 31795 ft | 472 kts | 285° |
| 2026-05-05 11:32 | 41.25415 | 80.32296 | 31795 ft | 472 kts | 285° |
| 2026-05-05 11:32 | 41.27178 | 80.23887 | 31808 ft | 473 kts | 285° |
| 2026-05-05 11:33 | 41.28990 | 80.15537 | 31811 ft | 473 kts | 285° |
| 2026-05-05 11:33 | 41.30817 | 80.07130 | 31818 ft | 473 kts | 285° |
| 2026-05-05 11:34 | 41.32630 | 79.98714 | 31822 ft | 473 kts | 285° |
| 2026-05-05 11:34 | 41.34434 | 79.90288 | 31829 ft | 474 kts | 285° |
| 2026-05-05 11:35 | 41.36230 | 79.81854 | 31835 ft | 474 kts | 285° |
| 2026-05-05 11:35 | 41.38010 | 79.73466 | 31838 ft | 474 kts | 285° |
| 2026-05-05 11:36 | 41.39797 | 79.65008 | 31842 ft | 475 kts | 285° |
| 2026-05-05 11:36 | 41.41577 | 79.56554 | 31853 ft | 474 kts | 285° |
| 2026-05-05 11:37 | 41.43339 | 79.48152 | 31864 ft | 474 kts | 285° |
| 2026-05-05 11:37 | 41.45109 | 79.39678 | 31873 ft | 474 kts | 285° |
| 2026-05-05 11:38 | 41.46871 | 79.31206 | 31901 ft | 474 kts | 284° |
| 2026-05-05 11:38 | 41.48626 | 79.22735 | 31927 ft | 474 kts | 285° |
| 2026-05-05 11:39 | 41.50362 | 79.14318 | 31947 ft | 474 kts | 284° |
| 2026-05-05 11:39 | 41.52105 | 79.05839 | 31983 ft | 474 kts | 284° |
| 2026-05-05 11:40 | 41.53842 | 78.97346 | 32014 ft | 474 kts | 284° |
| 2026-05-05 11:40 | 41.55564 | 78.88869 | 32026 ft | 473 kts | 283° |
| 2026-05-05 11:41 | 41.56514 | 78.80262 | 32048 ft | 473 kts | 272° |
| 2026-05-05 11:41 | 41.56399 | 78.71484 | 32070 ft | 474 kts | 267° |
| 2026-05-05 11:42 | 41.56061 | 78.62684 | 32078 ft | 474 kts | 266° |
| 2026-05-05 11:42 | 41.55739 | 78.53901 | 32074 ft | 472 kts | 266° |
| 2026-05-05 11:43 | 41.55433 | 78.45228 | 32081 ft | 470 kts | 267° |
| 2026-05-05 11:43 | 41.55128 | 78.36507 | 32082 ft | 470 kts | 266° |
| 2026-05-05 11:44 | 41.54818 | 78.27783 | 32089 ft | 470 kts | 266° |
| 2026-05-05 11:44 | 41.54501 | 78.19079 | 32082 ft | 470 kts | 266° |
| 2026-05-05 11:45 | 41.54177 | 78.10412 | 32080 ft | 472 kts | 266° |
| 2026-05-05 11:45 | 41.53843 | 78.01630 | 32087 ft | 475 kts | 266° |
| 2026-05-05 11:46 | 41.53501 | 77.92804 | 32088 ft | 477 kts | 266° |
| 2026-05-05 11:46 | 41.53153 | 77.83961 | 32084 ft | 476 kts | 266° |
| 2026-05-05 11:47 | 41.52800 | 77.75217 | 32091 ft | 474 kts | 266° |
| 2026-05-05 11:47 | 41.52440 | 77.66449 | 32095 ft | 473 kts | 266° |
| 2026-05-05 11:48 | 41.51887 | 77.53308 | 32107 ft | 473 kts | 266° |
| 2026-05-05 11:48 | 41.51513 | 77.44587 | 32113 ft | 475 kts | 266° |
| 2026-05-05 11:49 | 41.51126 | 77.35759 | 32109 ft | 478 kts | 266° |
| 2026-05-05 11:49 | 41.50732 | 77.26904 | 32115 ft | 479 kts | 266° |
| 2026-05-05 11:50 | 41.50330 | 77.18037 | 32109 ft | 479 kts | 266° |
| 2026-05-05 11:50 | 41.49924 | 77.09216 | 32109 ft | 480 kts | 266° |
| 2026-05-05 11:51 | 41.49509 | 77.00349 | 32106 ft | 479 kts | 266° |
| 2026-05-05 11:51 | 41.49087 | 76.91486 | 32109 ft | 478 kts | 266° |
| 2026-05-05 11:52 | 41.48659 | 76.82636 | 32112 ft | 478 kts | 266° |
| 2026-05-05 11:52 | 41.48226 | 76.73837 | 32108 ft | 479 kts | 266° |
| 2026-05-05 11:53 | 41.47784 | 76.64980 | 32123 ft | 479 kts | 266° |
| 2026-05-05 11:53 | 41.47335 | 76.56114 | 32122 ft | 480 kts | 266° |
| 2026-05-05 11:54 | 41.46882 | 76.47302 | 32117 ft | 479 kts | 266° |
| 2026-05-05 11:54 | 41.46418 | 76.38450 | 32121 ft | 479 kts | 265° |
| 2026-05-05 11:55 | 41.45949 | 76.29596 | 32124 ft | 479 kts | 265° |
| 2026-05-05 11:55 | 41.45472 | 76.20728 | 32130 ft | 480 kts | 265° |
| 2026-05-05 11:56 | 41.44991 | 76.11906 | 32133 ft | 481 kts | 265° |
| 2026-05-05 11:56 | 41.44498 | 76.02993 | 32134 ft | 482 kts | 265° |
| 2026-05-05 11:57 | 41.43997 | 75.94080 | 32128 ft | 482 kts | 265° |
| 2026-05-05 11:57 | 41.43492 | 75.85182 | 32127 ft | 481 kts | 265° |
| 2026-05-05 11:58 | 41.42983 | 75.76345 | 32130 ft | 482 kts | 265° |
| 2026-05-05 11:58 | 41.42463 | 75.67429 | 32133 ft | 483 kts | 265° |
| 2026-05-05 11:59 | 41.41938 | 75.58490 | 32145 ft | 485 kts | 265° |
| 2026-05-05 11:59 | 41.41406 | 75.49536 | 32149 ft | 485 kts | 265° |
| 2026-05-05 12:00 | 41.40871 | 75.40650 | 32153 ft | 484 kts | 265° |
| 2026-05-05 12:00 | 41.40327 | 75.31728 | 32161 ft | 482 kts | 265° |
| 2026-05-05 12:01 | 41.39777 | 75.22828 | 32170 ft | 482 kts | 265° |
| 2026-05-05 12:01 | 41.39221 | 75.13944 | 32540 ft | 486 kts | 265° |
| 2026-05-05 12:02 | 41.38938 | 75.09475 | 32955 ft | 483 kts | 265° |
| 2026-05-05 12:02 | 41.38656 | 75.05027 | 33362 ft | 481 kts | 265° |
| 2026-05-05 12:02 | 41.38372 | 75.00596 | 33746 ft | 480 kts | 265° |
| 2026-05-05 12:02 | 41.38087 | 74.96167 | 34068 ft | 480 kts | 265° |
| 2026-05-05 12:03 | 41.37512 | 74.87293 | 34165 ft | 482 kts | 265° |
| 2026-05-05 12:03 | 41.36931 | 74.78444 | 34165 ft | 483 kts | 264° |
| 2026-05-05 12:04 | 41.36338 | 74.69525 | 34176 ft | 484 kts | 264° |
| 2026-05-05 12:04 | 41.35737 | 74.60597 | 34180 ft | 485 kts | 264° |
| 2026-05-05 12:05 | 41.35129 | 74.51662 | 34172 ft | 484 kts | 264° |
| 2026-05-05 12:05 | 41.34517 | 74.42754 | 34164 ft | 483 kts | 264° |
| 2026-05-05 12:06 | 41.33900 | 74.33906 | 34173 ft | 483 kts | 264° |
| 2026-05-05 12:06 | 41.33274 | 74.25015 | 34169 ft | 484 kts | 264° |
| 2026-05-05 12:07 | 41.32639 | 74.16086 | 34172 ft | 485 kts | 264° |
| 2026-05-05 12:07 | 41.32001 | 74.07203 | 34172 ft | 486 kts | 264° |
| 2026-05-05 12:08 | 41.31361 | 73.98248 | 34170 ft | 486 kts | 265° |
| 2026-05-05 12:08 | 41.30946 | 73.89269 | 34170 ft | 486 kts | 267° |
| 2026-05-05 12:09 | 41.30620 | 73.80261 | 34179 ft | 488 kts | 267° |
| 2026-05-05 12:09 | 41.30263 | 73.71299 | 34174 ft | 490 kts | 266° |
| 2026-05-05 12:10 | 41.29869 | 73.62253 | 34173 ft | 491 kts | 266° |
| 2026-05-05 12:10 | 41.29458 | 73.53191 | 34181 ft | 491 kts | 266° |
| 2026-05-05 12:11 | 41.29042 | 73.44139 | 34163 ft | 490 kts | 266° |
| 2026-05-05 12:11 | 41.28623 | 73.35164 | 34160 ft | 489 kts | 266° |
| 2026-05-05 12:12 | 41.28196 | 73.26142 | 34155 ft | 488 kts | 266° |
| 2026-05-05 12:12 | 41.27763 | 73.17130 | 34147 ft | 489 kts | 267° |
| 2026-05-05 12:13 | 41.27323 | 73.08157 | 34134 ft | 490 kts | 266° |
| 2026-05-05 12:13 | 41.26875 | 72.99140 | 34127 ft | 488 kts | 266° |
| 2026-05-05 12:14 | 41.26421 | 72.90160 | 34121 ft | 486 kts | 267° |
| 2026-05-05 12:14 | 41.25962 | 72.81222 | 34112 ft | 483 kts | 267° |
| 2026-05-05 12:15 | 41.25502 | 72.72381 | 34109 ft | 483 kts | 267° |
| 2026-05-05 12:15 | 41.25033 | 72.63486 | 34099 ft | 482 kts | 267° |
| 2026-05-05 12:16 | 41.24557 | 72.54599 | 34088 ft | 482 kts | 267° |
| 2026-05-05 12:16 | 41.24073 | 72.45713 | 34087 ft | 482 kts | 267° |
| 2026-05-05 12:17 | 41.23587 | 72.36894 | 34066 ft | 481 kts | 267° |
| 2026-05-05 12:17 | 41.23093 | 72.28039 | 34063 ft | 481 kts | 267° |
| 2026-05-05 12:18 | 41.22592 | 72.19183 | 34050 ft | 481 kts | 267° |
| 2026-05-05 12:18 | 41.22094 | 72.10327 | 34041 ft | 481 kts | 267° |
| 2026-05-05 12:19 | 41.21593 | 72.01478 | 34037 ft | 480 kts | 267° |
| 2026-05-05 12:19 | 41.21089 | 71.92701 | 34034 ft | 480 kts | 267° |
| 2026-05-05 12:20 | 41.20576 | 71.83880 | 34028 ft | 479 kts | 267° |
| 2026-05-05 12:20 | 41.20054 | 71.75077 | 34027 ft | 478 kts | 267° |
| 2026-05-05 12:21 | 41.19516 | 71.66300 | 34023 ft | 477 kts | 267° |
| 2026-05-05 12:21 | 41.18975 | 71.57594 | 34021 ft | 476 kts | 267° |
| 2026-05-05 12:22 | 41.18427 | 71.48841 | 34026 ft | 475 kts | 267° |
| 2026-05-05 12:22 | 41.17874 | 71.40111 | 34023 ft | 475 kts | 267° |
| 2026-05-05 12:23 | 41.17316 | 71.31387 | 34039 ft | 475 kts | 267° |
| 2026-05-05 12:23 | 41.16754 | 71.22716 | 34052 ft | 475 kts | 267° |
| 2026-05-05 12:24 | 41.16182 | 71.13999 | 34060 ft | 474 kts | 266° |
| 2026-05-05 12:24 | 41.15603 | 71.05285 | 34077 ft | 474 kts | 266° |
| 2026-05-05 12:25 | 41.15019 | 70.96578 | 34085 ft | 474 kts | 266° |
| 2026-05-05 12:25 | 41.14432 | 70.87921 | 34094 ft | 474 kts | 266° |
| 2026-05-05 12:26 | 41.13835 | 70.79214 | 34103 ft | 474 kts | 266° |
| 2026-05-05 12:26 | 41.13232 | 70.70512 | 34105 ft | 474 kts | 266° |
| 2026-05-05 12:27 | 41.12604 | 70.61812 | 34116 ft | 474 kts | 266° |
| 2026-05-05 12:27 | 41.11965 | 70.53164 | 34141 ft | 475 kts | 266° |
| 2026-05-05 12:28 | 41.11321 | 70.44455 | 34123 ft | 474 kts | 265° |
| 2026-05-05 12:28 | 41.10674 | 70.35760 | 34117 ft | 473 kts | 265° |
| 2026-05-05 12:29 | 41.10044 | 70.27140 | 34109 ft | 472 kts | 268° |
| 2026-05-05 12:29 | 41.10217 | 70.18477 | 34110 ft | 470 kts | 278° |
| 2026-05-05 12:30 | 41.11028 | 70.09871 | 34121 ft | 471 kts | 278° |
| 2026-05-05 12:30 | 41.11828 | 70.01257 | 34090 ft | 470 kts | 277° |
| 2026-05-05 12:31 | 41.12592 | 69.92653 | 34111 ft | 470 kts | 277° |
| 2026-05-05 12:31 | 41.13332 | 69.84105 | 34068 ft | 469 kts | 277° |
| 2026-05-05 12:32 | 41.14070 | 69.75507 | 34056 ft | 468 kts | 277° |
| 2026-05-05 12:32 | 41.14801 | 69.66929 | 34046 ft | 468 kts | 277° |
| 2026-05-05 12:33 | 41.15525 | 69.58360 | 34029 ft | 468 kts | 277° |
| 2026-05-05 12:33 | 41.16239 | 69.49836 | 34018 ft | 467 kts | 277° |
| 2026-05-05 12:34 | 41.16949 | 69.41271 | 34009 ft | 467 kts | 277° |
| 2026-05-05 12:34 | 41.17653 | 69.32706 | 34019 ft | 467 kts | 277° |
| 2026-05-05 12:35 | 41.18348 | 69.24199 | 34018 ft | 467 kts | 277° |
| 2026-05-05 12:35 | 41.18730 | 69.15604 | 34015 ft | 466 kts | 272° |
| 2026-05-05 12:36 | 41.18920 | 69.06998 | 34011 ft | 466 kts | 272° |
| 2026-05-05 12:36 | 41.19132 | 68.98396 | 33998 ft | 466 kts | 273° |
| 2026-05-05 12:37 | 41.19440 | 68.89819 | 33989 ft | 464 kts | 277° |
| 2026-05-05 12:37 | 41.20244 | 68.81378 | 33988 ft | 464 kts | 278° |
| 2026-05-05 12:38 | 41.21080 | 68.72896 | 34008 ft | 463 kts | 278° |
| 2026-05-05 12:38 | 41.21889 | 68.64416 | 33998 ft | 462 kts | 278° |
| 2026-05-05 12:39 | 41.22671 | 68.56012 | 33994 ft | 461 kts | 278° |
| 2026-05-05 12:39 | 41.23448 | 68.47573 | 33989 ft | 460 kts | 278° |
| 2026-05-05 12:40 | 41.24219 | 68.39134 | 33983 ft | 460 kts | 278° |
| 2026-05-05 12:40 | 41.24983 | 68.30707 | 33977 ft | 459 kts | 278° |
| 2026-05-05 12:41 | 41.25736 | 68.22339 | 33991 ft | 459 kts | 278° |
| 2026-05-05 12:41 | 41.26486 | 68.13930 | 33990 ft | 458 kts | 278° |
| 2026-05-05 12:42 | 41.27229 | 68.05528 | 33984 ft | 457 kts | 278° |
| 2026-05-05 12:42 | 41.27965 | 67.97154 | 33983 ft | 456 kts | 278° |
| 2026-05-05 12:43 | 41.28934 | 67.88905 | 33987 ft | 454 kts | 283° |
| 2026-05-05 12:43 | 41.30239 | 67.80696 | 33978 ft | 454 kts | 283° |
| 2026-05-05 12:44 | 41.31545 | 67.72485 | 33982 ft | 454 kts | 283° |
| 2026-05-05 12:44 | 41.32825 | 67.64284 | 33975 ft | 452 kts | 283° |
| 2026-05-05 12:45 | 41.34080 | 67.56145 | 33971 ft | 451 kts | 283° |
| 2026-05-05 12:45 | 41.35331 | 67.47981 | 33972 ft | 450 kts | 283° |
| 2026-05-05 12:46 | 41.36575 | 67.39825 | 33975 ft | 449 kts | 283° |
| 2026-05-05 12:46 | 41.37812 | 67.31678 | 33972 ft | 449 kts | 283° |
| 2026-05-05 12:47 | 41.39034 | 67.23593 | 33965 ft | 448 kts | 283° |
| 2026-05-05 12:47 | 41.40256 | 67.15464 | 33964 ft | 447 kts | 283° |
| 2026-05-05 12:48 | 41.41472 | 67.07336 | 33966 ft | 447 kts | 283° |
| 2026-05-05 12:48 | 41.42673 | 66.99268 | 33962 ft | 447 kts | 283° |
| 2026-05-05 12:49 | 41.43876 | 66.91146 | 33971 ft | 447 kts | 283° |
| 2026-05-05 12:49 | 41.45072 | 66.83027 | 33966 ft | 446 kts | 283° |
| 2026-05-05 12:50 | 41.46261 | 66.74912 | 33964 ft | 446 kts | 283° |
| 2026-05-05 12:50 | 41.47444 | 66.66802 | 33970 ft | 446 kts | 283° |
| 2026-05-05 12:51 | 41.48332 | 66.58677 | 33973 ft | 447 kts | 275° |
| 2026-05-05 12:51 | 41.48372 | 66.50364 | 33972 ft | 449 kts | 272° |
| 2026-05-05 12:52 | 41.48358 | 66.42036 | 33971 ft | 449 kts | 272° |
| 2026-05-05 12:52 | 41.48360 | 66.33726 | 33968 ft | 448 kts | 273° |
| 2026-05-05 12:53 | 41.48367 | 66.25462 | 33972 ft | 448 kts | 272° |
| 2026-05-05 12:53 | 41.48369 | 66.17154 | 33965 ft | 448 kts | 272° |
| 2026-05-05 12:54 | 41.48360 | 66.04684 | 33961 ft | 448 kts | 272° |
| 2026-05-05 12:55 | 41.48347 | 65.96376 | 33966 ft | 448 kts | 272° |
| 2026-05-05 12:55 | 41.48328 | 65.88127 | 33965 ft | 447 kts | 272° |
| 2026-05-05 12:56 | 41.48303 | 65.79839 | 33967 ft | 447 kts | 272° |
| 2026-05-05 12:56 | 41.48239 | 65.71543 | 33967 ft | 447 kts | 272° |
| 2026-05-05 12:57 | 41.48138 | 65.63253 | 33963 ft | 447 kts | 272° |
| 2026-05-05 12:57 | 41.48033 | 65.55026 | 33960 ft | 447 kts | 272° |
| 2026-05-05 12:58 | 41.47927 | 65.46736 | 33962 ft | 447 kts | 271° |
| 2026-05-05 12:58 | 41.47818 | 65.38446 | 33963 ft | 447 kts | 271° |
| 2026-05-05 12:59 | 41.47703 | 65.30176 | 33964 ft | 446 kts | 271° |
| 2026-05-05 12:59 | 41.47582 | 65.21966 | 33962 ft | 446 kts | 271° |
| 2026-05-05 13:00 | 41.47390 | 65.09567 | 33960 ft | 445 kts | 271° |
| 2026-05-05 13:01 | 41.47113 | 64.93094 | 33965 ft | 444 kts | 271° |
| 2026-05-05 13:01 | 41.46967 | 64.84921 | 33960 ft | 443 kts | 271° |
| 2026-05-05 13:02 | 41.46814 | 64.76705 | 33959 ft | 443 kts | 271° |
| 2026-05-05 13:02 | 41.46656 | 64.68500 | 33960 ft | 442 kts | 271° |
| 2026-05-05 13:03 | 41.46493 | 64.60362 | 33960 ft | 442 kts | 271° |
| 2026-05-05 13:03 | 41.46324 | 64.52178 | 33961 ft | 442 kts | 271° |
| 2026-05-05 13:04 | 41.46149 | 64.44001 | 33961 ft | 441 kts | 271° |
| 2026-05-05 13:04 | 41.45968 | 64.35822 | 33959 ft | 442 kts | 271° |
| 2026-05-05 13:05 | 41.45782 | 64.27690 | 33952 ft | 441 kts | 271° |
| 2026-05-05 13:05 | 41.45590 | 64.19524 | 33947 ft | 441 kts | 271° |
| 2026-05-05 13:06 | 41.45392 | 64.11347 | 33955 ft | 441 kts | 271° |
| 2026-05-05 13:06 | 41.45189 | 64.03231 | 33948 ft | 441 kts | 271° |
| 2026-05-05 13:07 | 41.44980 | 63.95064 | 33936 ft | 441 kts | 271° |
| 2026-05-05 13:07 | 41.44765 | 63.86914 | 33943 ft | 440 kts | 270° |
| 2026-05-05 13:08 | 41.44545 | 63.78764 | 33934 ft | 440 kts | 270° |
| 2026-05-05 13:08 | 41.44320 | 63.70614 | 33931 ft | 440 kts | 270° |
| 2026-05-05 13:09 | 41.44085 | 63.62514 | 33928 ft | 441 kts | 270° |
| 2026-05-05 13:09 | 41.43830 | 63.54353 | 33929 ft | 441 kts | 270° |
| 2026-05-05 13:10 | 41.43567 | 63.46186 | 33928 ft | 441 kts | 270° |
| 2026-05-05 13:10 | 41.43300 | 63.38034 | 33913 ft | 440 kts | 269° |
| 2026-05-05 13:11 | 41.43031 | 63.29946 | 33916 ft | 440 kts | 269° |
| 2026-05-05 13:11 | 41.42755 | 63.21812 | 33921 ft | 440 kts | 269° |
| 2026-05-05 13:12 | 41.42474 | 63.13679 | 33916 ft | 440 kts | 269° |
| 2026-05-05 13:12 | 41.42186 | 63.05538 | 33916 ft | 440 kts | 269° |
| 2026-05-05 13:13 | 41.41893 | 62.97405 | 33909 ft | 439 kts | 269° |
| 2026-05-05 13:13 | 41.41597 | 62.89343 | 33914 ft | 439 kts | 269° |
| 2026-05-05 13:14 | 41.41293 | 62.81229 | 33905 ft | 439 kts | 269° |
| 2026-05-05 13:14 | 41.40984 | 62.73113 | 33913 ft | 439 kts | 268° |
| 2026-05-05 13:15 | 41.40671 | 62.65052 | 33908 ft | 439 kts | 268° |
| 2026-05-05 13:15 | 41.40350 | 62.56929 | 33906 ft | 439 kts | 268° |
| 2026-05-05 13:16 | 41.40026 | 62.48803 | 33911 ft | 440 kts | 268° |
| 2026-05-05 13:16 | 41.39724 | 62.40667 | 33902 ft | 440 kts | 268° |
| 2026-05-05 13:17 | 41.39429 | 62.32599 | 33909 ft | 439 kts | 268° |
| 2026-05-05 13:17 | 41.39124 | 62.24492 | 33908 ft | 439 kts | 268° |
| 2026-05-05 13:18 | 41.38811 | 62.16368 | 33907 ft | 439 kts | 268° |
| 2026-05-05 13:18 | 41.38491 | 62.08245 | 33911 ft | 439 kts | 268° |
| 2026-05-05 13:19 | 41.38169 | 62.00183 | 33903 ft | 439 kts | 268° |
| 2026-05-05 13:19 | 41.37838 | 61.92067 | 33910 ft | 439 kts | 268° |
| 2026-05-05 13:20 | 41.37502 | 61.83961 | 33914 ft | 438 kts | 267° |
| 2026-05-05 13:20 | 41.37160 | 61.75851 | 33911 ft | 439 kts | 267° |
| 2026-05-05 13:21 | 41.36815 | 61.67807 | 33906 ft | 438 kts | 267° |
| 2026-05-05 13:21 | 41.36463 | 61.59703 | 33908 ft | 438 kts | 267° |
| 2026-05-05 13:22 | 41.36105 | 61.51604 | 33907 ft | 439 kts | 267° |
| 2026-05-05 13:22 | 41.35741 | 61.43491 | 33910 ft | 439 kts | 267° |
| 2026-05-05 13:23 | 41.35371 | 61.35436 | 33898 ft | 439 kts | 266° |
| 2026-05-05 13:23 | 41.34991 | 61.27335 | 33903 ft | 439 kts | 266° |
| 2026-05-05 13:24 | 41.34606 | 61.19227 | 33896 ft | 439 kts | 266° |
| 2026-05-05 13:24 | 41.34217 | 61.11127 | 33902 ft | 439 kts | 266° |
| 2026-05-05 13:25 | 41.33824 | 61.03081 | 33900 ft | 439 kts | 266° |
| 2026-05-05 13:25 | 41.33423 | 60.94979 | 33897 ft | 439 kts | 266° |
| 2026-05-05 13:26 | 41.33017 | 60.86875 | 33894 ft | 439 kts | 266° |
| 2026-05-05 13:26 | 41.32607 | 60.78828 | 33890 ft | 439 kts | 266° |
| 2026-05-05 13:27 | 41.32189 | 60.70732 | 33885 ft | 438 kts | 265° |
| 2026-05-05 13:27 | 41.31766 | 60.62645 | 33889 ft | 439 kts | 265° |
| 2026-05-05 13:28 | 41.31338 | 60.54551 | 33886 ft | 438 kts | 265° |
| 2026-05-05 13:28 | 41.30908 | 60.46523 | 33886 ft | 438 kts | 265° |
| 2026-05-05 13:29 | 41.30857 | 60.38427 | 33881 ft | 438 kts | 272° |
| 2026-05-05 13:29 | 41.31293 | 60.30336 | 33887 ft | 439 kts | 272° |
| 2026-05-05 13:30 | 41.31704 | 60.22250 | 33879 ft | 438 kts | 272° |
| 2026-05-05 13:30 | 41.32089 | 60.14222 | 33876 ft | 438 kts | 272° |
| 2026-05-05 13:31 | 41.32471 | 60.06134 | 33884 ft | 438 kts | 272° |
| 2026-05-05 13:31 | 41.32853 | 59.98051 | 33870 ft | 438 kts | 272° |
| 2026-05-05 13:32 | 41.33233 | 59.90020 | 33878 ft | 438 kts | 272° |
| 2026-05-05 13:32 | 41.33609 | 59.81933 | 33885 ft | 438 kts | 272° |
| 2026-05-05 13:33 | 41.33979 | 59.73846 | 33872 ft | 438 kts | 272° |
| 2026-05-05 13:33 | 41.34168 | 59.65766 | 33878 ft | 437 kts | 266° |
| 2026-05-05 13:34 | 41.33513 | 59.57796 | 33874 ft | 436 kts | 262° |
| 2026-05-05 13:34 | 41.32738 | 59.49800 | 33870 ft | 436 kts | 262° |
| 2026-05-05 13:35 | 41.31977 | 59.41801 | 33870 ft | 436 kts | 262° |
| 2026-05-05 13:35 | 41.31219 | 59.33808 | 33865 ft | 436 kts | 262° |
| 2026-05-05 13:36 | 41.30463 | 59.25864 | 33865 ft | 436 kts | 262° |
| 2026-05-05 13:36 | 41.29695 | 59.17865 | 33868 ft | 436 kts | 262° |
| 2026-05-05 13:37 | 41.28923 | 59.09872 | 33865 ft | 435 kts | 262° |
| 2026-05-05 13:37 | 41.28150 | 59.01943 | 33854 ft | 435 kts | 262° |
| 2026-05-05 13:38 | 41.27368 | 58.93968 | 33855 ft | 435 kts | 261° |
| 2026-05-05 13:38 | 41.26579 | 58.85994 | 33850 ft | 435 kts | 261° |
| 2026-05-05 13:39 | 41.25785 | 58.78018 | 33848 ft | 435 kts | 261° |
| 2026-05-05 13:39 | 41.24991 | 58.70090 | 33848 ft | 435 kts | 261° |
| 2026-05-05 13:40 | 41.24187 | 58.62130 | 33844 ft | 435 kts | 261° |
| 2026-05-05 13:40 | 41.23376 | 58.54160 | 33841 ft | 435 kts | 261° |
| 2026-05-05 13:41 | 41.22567 | 58.46254 | 33838 ft | 435 kts | 261° |
| 2026-05-05 13:41 | 41.21746 | 58.38292 | 33838 ft | 435 kts | 261° |
| 2026-05-05 13:42 | 41.20920 | 58.30334 | 33838 ft | 435 kts | 261° |
| 2026-05-05 13:42 | 41.20089 | 58.22380 | 33827 ft | 435 kts | 261° |
| 2026-05-05 13:43 | 41.19254 | 58.14433 | 33827 ft | 435 kts | 261° |
| 2026-05-05 13:43 | 41.18417 | 58.06541 | 33823 ft | 435 kts | 261° |
| 2026-05-05 13:44 | 41.17564 | 57.98588 | 33825 ft | 435 kts | 261° |
| 2026-05-05 13:44 | 41.16706 | 57.90633 | 33822 ft | 435 kts | 260° |
| 2026-05-05 13:45 | 41.15849 | 57.82738 | 33816 ft | 435 kts | 260° |
| 2026-05-05 13:45 | 41.14983 | 57.74798 | 33819 ft | 435 kts | 260° |
| 2026-05-05 13:46 | 41.14111 | 57.66867 | 33815 ft | 435 kts | 260° |
| 2026-05-05 13:46 | 41.13233 | 57.58920 | 33812 ft | 435 kts | 260° |
| 2026-05-05 13:47 | 41.12355 | 57.51036 | 33817 ft | 435 kts | 260° |
| 2026-05-05 13:47 | 41.11467 | 57.43106 | 33814 ft | 435 kts | 260° |
| 2026-05-05 13:48 | 41.10573 | 57.35176 | 33816 ft | 435 kts | 260° |
| 2026-05-05 13:48 | 41.09675 | 57.27256 | 33809 ft | 434 kts | 259° |
| 2026-05-05 13:49 | 41.08772 | 57.19350 | 33811 ft | 434 kts | 259° |
| 2026-05-05 13:49 | 41.07870 | 57.11492 | 33813 ft | 434 kts | 259° |
| 2026-05-05 13:50 | 41.06958 | 57.03599 | 33814 ft | 433 kts | 259° |
| 2026-05-05 13:50 | 41.06039 | 56.95705 | 33810 ft | 433 kts | 259° |
| 2026-05-05 13:51 | 41.05116 | 56.87814 | 33811 ft | 433 kts | 259° |
| 2026-05-05 13:51 | 41.04195 | 56.79990 | 33812 ft | 433 kts | 259° |
| 2026-05-05 13:52 | 41.03263 | 56.72115 | 33804 ft | 432 kts | 259° |
| 2026-05-05 13:52 | 41.02326 | 56.64251 | 33797 ft | 432 kts | 259° |
| 2026-05-05 13:53 | 41.01386 | 56.56392 | 33805 ft | 431 kts | 259° |
| 2026-05-05 13:53 | 41.00640 | 56.48572 | 33819 ft | 432 kts | 265° |
| 2026-05-05 13:54 | 41.00560 | 56.40604 | 33804 ft | 433 kts | 266° |
| 2026-05-05 13:54 | 41.00488 | 56.32650 | 33809 ft | 432 kts | 266° |
| 2026-05-05 13:55 | 41.00395 | 56.24704 | 33809 ft | 431 kts | 266° |
| 2026-05-05 13:55 | 41.00292 | 56.16837 | 33808 ft | 430 kts | 265° |
| 2026-05-05 13:56 | 41.00182 | 56.08937 | 33812 ft | 429 kts | 265° |
| 2026-05-05 13:56 | 41.00067 | 56.01029 | 33826 ft | 429 kts | 265° |
| 2026-05-05 13:57 | 40.99948 | 55.93143 | 33835 ft | 428 kts | 265° |
| 2026-05-05 13:57 | 40.99824 | 55.85322 | 33817 ft | 427 kts | 265° |
| 2026-05-05 13:58 | 40.99695 | 55.77462 | 33825 ft | 427 kts | 265° |
| 2026-05-05 13:58 | 40.99568 | 55.69595 | 33837 ft | 427 kts | 265° |
| 2026-05-05 13:59 | 40.99378 | 55.57864 | 33847 ft | 427 kts | 265° |
| 2026-05-05 14:00 | 40.99196 | 55.47414 | 33851 ft | 426 kts | 264° |
| 2026-05-05 14:00 | 40.99028 | 55.38234 | 33859 ft | 427 kts | 264° |
| 2026-05-05 14:01 | 40.98904 | 55.31706 | 33871 ft | 427 kts | 264° |
| 2026-05-05 14:01 | 40.98726 | 55.22573 | 33872 ft | 427 kts | 264° |
| 2026-05-05 14:02 | 40.98567 | 55.14729 | 33877 ft | 426 kts | 264° |
| 2026-05-05 14:02 | 40.98402 | 55.06893 | 33892 ft | 426 kts | 264° |
| 2026-05-05 14:03 | 40.98233 | 54.99114 | 33891 ft | 427 kts | 264° |
| 2026-05-05 14:03 | 40.98059 | 54.91259 | 33895 ft | 426 kts | 264° |
| 2026-05-05 14:04 | 40.97876 | 54.83422 | 33898 ft | 426 kts | 263° |
| 2026-05-05 14:04 | 40.97716 | 54.76908 | 33902 ft | 426 kts | 263° |
| 2026-05-05 14:05 | 40.97488 | 54.67796 | 33909 ft | 427 kts | 263° |
| 2026-05-05 14:05 | 40.97286 | 54.59944 | 33907 ft | 428 kts | 263° |
| 2026-05-05 14:06 | 40.97079 | 54.52077 | 33907 ft | 428 kts | 263° |
| 2026-05-05 14:06 | 40.96902 | 54.45534 | 33906 ft | 428 kts | 263° |
| 2026-05-05 14:07 | 40.96650 | 54.36396 | 33906 ft | 428 kts | 263° |
| 2026-05-05 14:07 | 40.96426 | 54.28517 | 33909 ft | 428 kts | 263° |
| 2026-05-05 14:08 | 40.96198 | 54.20652 | 33911 ft | 428 kts | 263° |
| 2026-05-05 14:08 | 40.96004 | 54.14115 | 33912 ft | 428 kts | 262° |
| 2026-05-05 14:09 | 40.95725 | 54.04967 | 33912 ft | 429 kts | 262° |
| 2026-05-05 14:09 | 40.95480 | 53.97080 | 33909 ft | 430 kts | 262° |
| 2026-05-05 14:10 | 40.95271 | 53.90512 | 33912 ft | 430 kts | 262° |
| 2026-05-05 14:10 | 40.95016 | 53.82606 | 33909 ft | 430 kts | 262° |
| 2026-05-05 14:11 | 40.94755 | 53.74701 | 33907 ft | 430 kts | 262° |
| 2026-05-05 14:11 | 40.94444 | 53.65509 | 33911 ft | 430 kts | 262° |
| 2026-05-05 14:12 | 40.94218 | 53.58933 | 33908 ft | 430 kts | 262° |
| 2026-05-05 14:12 | 40.93940 | 53.51026 | 33914 ft | 431 kts | 261° |
| 2026-05-05 14:13 | 40.93611 | 53.41829 | 33911 ft | 430 kts | 261° |
| 2026-05-05 14:13 | 40.93371 | 53.35267 | 33916 ft | 430 kts | 261° |
| 2026-05-05 14:14 | 40.93077 | 53.27366 | 33926 ft | 431 kts | 261° |
| 2026-05-05 14:14 | 40.92779 | 53.19440 | 33920 ft | 431 kts | 261° |
| 2026-05-05 14:15 | 40.92474 | 53.11522 | 33917 ft | 431 kts | 261° |
| 2026-05-05 14:15 | 40.92154 | 53.03663 | 33930 ft | 431 kts | 261° |
| 2026-05-05 14:16 | 40.91822 | 52.95754 | 33934 ft | 431 kts | 260° |
| 2026-05-05 14:16 | 40.91488 | 52.87851 | 33929 ft | 430 kts | 260° |
| 2026-05-05 14:17 | 40.91151 | 52.80008 | 33935 ft | 430 kts | 260° |
| 2026-05-05 14:17 | 40.90808 | 52.72122 | 33934 ft | 430 kts | 260° |
| 2026-05-05 14:18 | 40.90459 | 52.64244 | 33930 ft | 430 kts | 260° |
| 2026-05-05 14:18 | 40.89691 | 52.56485 | 33934 ft | 423 kts | 252° |
| 2026-05-05 14:19 | 40.88478 | 52.48930 | 33923 ft | 423 kts | 252° |
| 2026-05-05 14:19 | 40.87268 | 52.41319 | 33920 ft | 423 kts | 252° |
| 2026-05-05 14:20 | 40.86066 | 52.33717 | 33925 ft | 423 kts | 252° |
| 2026-05-05 14:20 | 40.84862 | 52.26113 | 33924 ft | 423 kts | 252° |
| 2026-05-05 14:21 | 40.83662 | 52.18561 | 33925 ft | 423 kts | 252° |
| 2026-05-05 14:21 | 40.82451 | 52.10978 | 33923 ft | 422 kts | 252° |
| 2026-05-05 14:22 | 40.81234 | 52.03390 | 33927 ft | 422 kts | 252° |
| 2026-05-05 14:22 | 40.80012 | 51.95807 | 33931 ft | 422 kts | 252° |
| 2026-05-05 14:23 | 40.78786 | 51.88236 | 33925 ft | 422 kts | 252° |
| 2026-05-05 14:23 | 40.77565 | 51.80725 | 33930 ft | 422 kts | 251° |
| 2026-05-05 14:24 | 40.76328 | 51.73148 | 33932 ft | 422 kts | 251° |
| 2026-05-05 14:24 | 40.75087 | 51.65581 | 33931 ft | 423 kts | 251° |
| 2026-05-05 14:25 | 40.73842 | 51.58009 | 33929 ft | 422 kts | 251° |
| 2026-05-05 14:25 | 40.72662 | 51.50470 | 33939 ft | 425 kts | 255° |
| 2026-05-05 14:26 | 40.72178 | 51.42643 | 33933 ft | 430 kts | 260° |
| 2026-05-05 14:26 | 40.71891 | 51.34765 | 33936 ft | 430 kts | 260° |
| 2026-05-05 14:27 | 40.71583 | 51.26885 | 33937 ft | 431 kts | 260° |
| 2026-05-05 14:27 | 40.71262 | 51.19046 | 33941 ft | 432 kts | 260° |
| 2026-05-05 14:28 | 40.70932 | 51.11139 | 33942 ft | 433 kts | 260° |
| 2026-05-05 14:28 | 40.70598 | 51.03221 | 33940 ft | 432 kts | 260° |
| 2026-05-05 14:29 | 40.70257 | 50.95300 | 33939 ft | 433 kts | 260° |
| 2026-05-05 14:29 | 40.69911 | 50.87407 | 33942 ft | 435 kts | 260° |
| 2026-05-05 14:30 | 40.69557 | 50.79434 | 33939 ft | 436 kts | 260° |
| 2026-05-05 14:30 | 40.69198 | 50.71447 | 33938 ft | 437 kts | 260° |
| 2026-05-05 14:31 | 40.68832 | 50.63456 | 33939 ft | 437 kts | 260° |
| 2026-05-05 14:31 | 40.68465 | 50.55524 | 33942 ft | 437 kts | 260° |
| 2026-05-05 14:32 | 40.68170 | 50.47503 | 33942 ft | 442 kts | 265° |
| 2026-05-05 14:32 | 40.68756 | 50.39374 | 33946 ft | 450 kts | 272° |
| 2026-05-05 14:33 | 40.70190 | 50.31285 | 33953 ft | 455 kts | 277° |
| 2026-05-05 14:33 | 40.71776 | 50.23279 | 33958 ft | 455 kts | 277° |
| 2026-05-05 14:34 | 40.73353 | 50.15203 | 33949 ft | 455 kts | 277° |
| 2026-05-05 14:34 | 40.74902 | 50.07119 | 33955 ft | 455 kts | 277° |
| 2026-05-05 14:35 | 40.76439 | 49.99024 | 33950 ft | 455 kts | 277° |
| 2026-05-05 14:35 | 40.77957 | 49.90989 | 33950 ft | 454 kts | 277° |
| 2026-05-05 14:36 | 40.79481 | 49.82893 | 33952 ft | 455 kts | 277° |
| 2026-05-05 14:36 | 40.81003 | 49.74778 | 33955 ft | 456 kts | 277° |
| 2026-05-05 14:37 | 40.82509 | 49.66715 | 33952 ft | 456 kts | 277° |
| 2026-05-05 14:37 | 40.84022 | 49.58580 | 33951 ft | 456 kts | 277° |
| 2026-05-05 14:38 | 40.85530 | 49.50441 | 33952 ft | 457 kts | 277° |
| 2026-05-05 14:38 | 40.87034 | 49.42284 | 33954 ft | 457 kts | 277° |
| 2026-05-05 14:39 | 40.88525 | 49.34171 | 33957 ft | 458 kts | 277° |
| 2026-05-05 14:39 | 40.89949 | 49.25984 | 33947 ft | 458 kts | 276° |
| 2026-05-05 14:40 | 40.91325 | 49.17764 | 33967 ft | 459 kts | 276° |
| 2026-05-05 14:40 | 40.92706 | 49.09517 | 33944 ft | 460 kts | 276° |
| 2026-05-05 14:41 | 40.94080 | 49.01323 | 33950 ft | 459 kts | 276° |
| 2026-05-05 14:41 | 40.95458 | 48.93092 | 33951 ft | 459 kts | 276° |
| 2026-05-05 14:42 | 40.96834 | 48.84834 | 33941 ft | 459 kts | 276° |
| 2026-05-05 14:42 | 40.98200 | 48.76589 | 33932 ft | 458 kts | 276° |
| 2026-05-05 14:43 | 40.99549 | 48.68403 | 33931 ft | 458 kts | 276° |
| 2026-05-05 14:43 | 41.00901 | 48.60174 | 33937 ft | 457 kts | 276° |
| 2026-05-05 14:44 | 41.02244 | 48.51956 | 33931 ft | 456 kts | 275° |
| 2026-05-05 14:44 | 41.03577 | 48.43761 | 33947 ft | 455 kts | 275° |
| 2026-05-05 14:45 | 41.04894 | 48.35627 | 33922 ft | 454 kts | 275° |
| 2026-05-05 14:45 | 41.06209 | 48.27457 | 33919 ft | 454 kts | 275° |
| 2026-05-05 14:46 | 41.07518 | 48.19294 | 33936 ft | 453 kts | 275° |
| 2026-05-05 14:46 | 41.08822 | 48.11107 | 33934 ft | 454 kts | 275° |
| 2026-05-05 14:47 | 41.10113 | 48.02989 | 33930 ft | 452 kts | 275° |
| 2026-05-05 14:47 | 41.11403 | 47.94836 | 33908 ft | 450 kts | 274° |
| 2026-05-05 14:48 | 41.12688 | 47.86688 | 33919 ft | 452 kts | 274° |
| 2026-05-05 14:48 | 41.13972 | 47.78523 | 33919 ft | 452 kts | 274° |
| 2026-05-05 14:49 | 41.15238 | 47.70433 | 33916 ft | 451 kts | 274° |
| 2026-05-05 14:49 | 41.16507 | 47.62290 | 33917 ft | 449 kts | 274° |
| 2026-05-05 14:50 | 41.17761 | 47.54184 | 33919 ft | 448 kts | 274° |
| 2026-05-05 14:50 | 41.19010 | 47.46064 | 33916 ft | 450 kts | 274° |
| 2026-05-05 14:51 | 41.20251 | 47.37975 | 33913 ft | 450 kts | 274° |
| 2026-05-05 14:51 | 41.21494 | 47.29843 | 33909 ft | 449 kts | 274° |
| 2026-05-05 14:52 | 41.22726 | 47.21734 | 33934 ft | 448 kts | 274° |
| 2026-05-05 14:52 | 41.23952 | 47.13611 | 33917 ft | 448 kts | 273° |
| 2026-05-05 14:53 | 41.25166 | 47.05536 | 33927 ft | 449 kts | 273° |
| 2026-05-05 14:53 | 41.26381 | 46.97406 | 33931 ft | 449 kts | 273° |
| 2026-05-05 14:54 | 41.27595 | 46.89247 | 33929 ft | 450 kts | 273° |
| 2026-05-05 14:54 | 41.28804 | 46.81090 | 33928 ft | 450 kts | 273° |
| 2026-05-05 14:55 | 41.29995 | 46.72978 | 33929 ft | 450 kts | 273° |
| 2026-05-05 14:55 | 41.31147 | 46.64792 | 33925 ft | 451 kts | 272° |
| 2026-05-05 14:56 | 41.32283 | 46.56593 | 33935 ft | 451 kts | 272° |
| 2026-05-05 14:56 | 41.33419 | 46.48376 | 33921 ft | 451 kts | 272° |
| 2026-05-05 14:57 | 41.34545 | 46.40210 | 33918 ft | 451 kts | 272° |
| 2026-05-05 14:57 | 41.35674 | 46.31989 | 33916 ft | 452 kts | 272° |
| 2026-05-05 14:58 | 41.36799 | 46.23741 | 33908 ft | 453 kts | 273° |
| 2026-05-05 14:58 | 41.37913 | 46.15535 | 33904 ft | 455 kts | 273° |
| 2026-05-05 14:59 | 41.39033 | 46.07239 | 33907 ft | 455 kts | 273° |
| 2026-05-05 14:59 | 41.40145 | 45.98955 | 33901 ft | 455 kts | 273° |
| 2026-05-05 15:00 | 41.41069 | 45.92032 | 33908 ft | 456 kts | 273° |
| 2026-05-05 15:00 | 41.42355 | 45.82343 | 33906 ft | 458 kts | 273° |
| 2026-05-05 15:01 | 41.43461 | 45.73969 | 33904 ft | 458 kts | 273° |
| 2026-05-05 15:01 | 41.44560 | 45.65586 | 33901 ft | 459 kts | 274° |
| 2026-05-05 15:02 | 41.45655 | 45.57191 | 33888 ft | 459 kts | 274° |
| 2026-05-05 15:02 | 41.46735 | 45.48864 | 33886 ft | 460 kts | 274° |
| 2026-05-05 15:03 | 41.47818 | 45.40459 | 33889 ft | 461 kts | 274° |
| 2026-05-05 15:03 | 41.48744 | 45.32024 | 33892 ft | 459 kts | 271° |
| 2026-05-05 15:04 | 41.49429 | 45.23532 | 33907 ft | 459 kts | 271° |
| 2026-05-05 15:04 | 41.50087 | 45.15113 | 33926 ft | 461 kts | 271° |
| 2026-05-05 15:05 | 41.51108 | 45.02337 | 33919 ft | 463 kts | 271° |
| 2026-05-05 15:06 | 41.51793 | 44.93797 | 33921 ft | 464 kts | 271° |
| 2026-05-05 15:06 | 41.52473 | 44.85224 | 33922 ft | 465 kts | 271° |
| 2026-05-05 15:07 | 41.53143 | 44.76682 | 33918 ft | 467 kts | 272° |
| 2026-05-05 15:07 | 41.53814 | 44.68051 | 33935 ft | 468 kts | 272° |
| 2026-05-05 15:08 | 41.54479 | 44.59403 | 33940 ft | 469 kts | 272° |
| 2026-05-05 15:08 | 41.55139 | 44.50723 | 33951 ft | 471 kts | 272° |
| 2026-05-05 15:09 | 41.55792 | 44.42076 | 33957 ft | 472 kts | 272° |
| 2026-05-05 15:09 | 41.56443 | 44.33352 | 33953 ft | 473 kts | 272° |
| 2026-05-05 15:10 | 41.57090 | 44.24616 | 33968 ft | 473 kts | 272° |
| 2026-05-05 15:10 | 41.57756 | 44.15863 | 33959 ft | 474 kts | 272° |
| 2026-05-05 15:11 | 41.58446 | 44.07175 | 33964 ft | 473 kts | 272° |
| 2026-05-05 15:11 | 41.59132 | 43.98421 | 33960 ft | 474 kts | 272° |
| 2026-05-05 15:12 | 41.59807 | 43.89656 | 33964 ft | 474 kts | 272° |
| 2026-05-05 15:12 | 41.60470 | 43.80943 | 33956 ft | 475 kts | 272° |
| 2026-05-05 15:13 | 41.61131 | 43.72166 | 33957 ft | 475 kts | 272° |
| 2026-05-05 15:13 | 41.61786 | 43.63382 | 33953 ft | 475 kts | 272° |
| 2026-05-05 15:14 | 41.62435 | 43.54590 | 33959 ft | 475 kts | 273° |
| 2026-05-05 15:14 | 41.63074 | 43.45859 | 33949 ft | 475 kts | 272° |
| 2026-05-05 15:15 | 41.63713 | 43.37069 | 33948 ft | 475 kts | 272° |
| 2026-05-05 15:15 | 41.64348 | 43.28274 | 33954 ft | 475 kts | 272° |
| 2026-05-05 15:16 | 41.64975 | 43.19484 | 33951 ft | 475 kts | 272° |
| 2026-05-05 15:16 | 41.65591 | 43.10740 | 33951 ft | 475 kts | 272° |
| 2026-05-05 15:17 | 41.66205 | 43.01949 | 33954 ft | 475 kts | 272° |
| 2026-05-05 15:17 | 41.66814 | 42.93134 | 33954 ft | 476 kts | 272° |
| 2026-05-05 15:18 | 41.67164 | 42.84319 | 33967 ft | 473 kts | 265° |
| 2026-05-05 15:18 | 41.66518 | 42.75578 | 33970 ft | 473 kts | 261° |
| 2026-05-05 15:19 | 41.65742 | 42.66890 | 34086 ft | 476 kts | 261° |
| 2026-05-05 15:19 | 41.65359 | 42.62499 | 34379 ft | 475 kts | 261° |
| 2026-05-05 15:19 | 41.64982 | 42.58107 | 34743 ft | 474 kts | 261° |
| 2026-05-05 15:19 | 41.64611 | 42.53741 | 35086 ft | 472 kts | 261° |
| 2026-05-05 15:20 | 41.64241 | 42.49383 | 35407 ft | 471 kts | 261° |
| 2026-05-05 15:20 | 41.63871 | 42.45032 | 35709 ft | 471 kts | 261° |
| 2026-05-05 15:20 | 41.63501 | 42.40684 | 35901 ft | 472 kts | 261° |
| 2026-05-05 15:21 | 41.62756 | 42.32010 | 35976 ft | 473 kts | 261° |
| 2026-05-05 15:21 | 41.61997 | 42.23276 | 35985 ft | 473 kts | 261° |
| 2026-05-05 15:22 | 41.61235 | 42.14562 | 35996 ft | 472 kts | 261° |
| 2026-05-05 15:22 | 41.60471 | 42.05914 | 35994 ft | 472 kts | 261° |
| 2026-05-05 15:23 | 41.59695 | 41.97215 | 36003 ft | 472 kts | 260° |
| 2026-05-05 15:23 | 41.58910 | 41.88494 | 36011 ft | 473 kts | 260° |
| 2026-05-05 15:24 | 41.58119 | 41.79763 | 36024 ft | 474 kts | 260° |
| 2026-05-05 15:24 | 41.57324 | 41.71078 | 36034 ft | 474 kts | 260° |
| 2026-05-05 15:25 | 41.56518 | 41.62333 | 36012 ft | 474 kts | 260° |
| 2026-05-05 15:25 | 41.55708 | 41.53613 | 36027 ft | 474 kts | 260° |
| 2026-05-05 15:26 | 41.55032 | 41.44859 | 36030 ft | 476 kts | 265° |
| 2026-05-05 15:26 | 41.55327 | 41.36051 | 36016 ft | 480 kts | 272° |
| 2026-05-05 15:27 | 41.55896 | 41.27162 | 36009 ft | 481 kts | 272° |
| 2026-05-05 15:27 | 41.56435 | 41.18260 | 36009 ft | 482 kts | 271° |
| 2026-05-05 15:28 | 41.56940 | 41.09335 | 36011 ft | 482 kts | 271° |
| 2026-05-05 15:28 | 41.57428 | 41.00456 | 36008 ft | 483 kts | 271° |
| 2026-05-05 15:29 | 41.57913 | 40.91519 | 36009 ft | 483 kts | 271° |
| 2026-05-05 15:29 | 41.58393 | 40.82580 | 36015 ft | 483 kts | 271° |
| 2026-05-05 15:30 | 41.58867 | 40.73633 | 36013 ft | 483 kts | 271° |
| 2026-05-05 15:30 | 41.59332 | 40.64732 | 36023 ft | 484 kts | 271° |
| 2026-05-05 15:31 | 41.59790 | 40.55761 | 36018 ft | 484 kts | 271° |
| 2026-05-05 15:31 | 41.60239 | 40.46791 | 36018 ft | 484 kts | 271° |
| 2026-05-05 15:32 | 41.60681 | 40.37808 | 36021 ft | 485 kts | 271° |
| 2026-05-05 15:32 | 41.61115 | 40.28882 | 36020 ft | 485 kts | 271° |
| 2026-05-05 15:33 | 41.61545 | 40.19888 | 36019 ft | 485 kts | 271° |
| 2026-05-05 15:33 | 41.61968 | 40.10887 | 36026 ft | 486 kts | 271° |
| 2026-05-05 15:34 | 41.62385 | 40.01874 | 36023 ft | 486 kts | 271° |
| 2026-05-05 15:34 | 41.62791 | 39.92928 | 36019 ft | 486 kts | 271° |
| 2026-05-05 15:35 | 41.63194 | 39.83905 | 36022 ft | 486 kts | 271° |
| 2026-05-05 15:35 | 41.63590 | 39.74890 | 36019 ft | 486 kts | 271° |
| 2026-05-05 15:36 | 41.63977 | 39.65924 | 36023 ft | 486 kts | 271° |
| 2026-05-05 15:36 | 41.64360 | 39.56896 | 36016 ft | 487 kts | 271° |
| 2026-05-05 15:37 | 41.64739 | 39.47862 | 36024 ft | 487 kts | 271° |
| 2026-05-05 15:37 | 41.65114 | 39.38828 | 36022 ft | 487 kts | 271° |
| 2026-05-05 15:38 | 41.65479 | 39.29843 | 36016 ft | 487 kts | 271° |
| 2026-05-05 15:38 | 41.65840 | 39.20800 | 36016 ft | 487 kts | 271° |
| 2026-05-05 15:39 | 41.66193 | 39.11752 | 36019 ft | 487 kts | 271° |
| 2026-05-05 15:39 | 41.66540 | 39.02695 | 36033 ft | 487 kts | 271° |
| 2026-05-05 15:40 | 41.66877 | 38.93704 | 36024 ft | 487 kts | 270° |
| 2026-05-05 15:40 | 41.67209 | 38.84652 | 36021 ft | 488 kts | 270° |
| 2026-05-05 15:41 | 41.67534 | 38.75597 | 36019 ft | 488 kts | 270° |
| 2026-05-05 15:41 | 41.67852 | 38.66531 | 36019 ft | 488 kts | 270° |
| 2026-05-05 15:42 | 41.68161 | 38.57543 | 36018 ft | 487 kts | 270° |
| 2026-05-05 15:42 | 41.68465 | 38.48482 | 36022 ft | 487 kts | 270° |
| 2026-05-05 15:43 | 41.68762 | 38.39425 | 36023 ft | 487 kts | 270° |
| 2026-05-05 15:43 | 41.69052 | 38.30370 | 36022 ft | 487 kts | 270° |
| 2026-05-05 15:44 | 41.69334 | 38.21306 | 36023 ft | 487 kts | 270° |
| 2026-05-05 15:44 | 41.69608 | 38.12310 | 36025 ft | 488 kts | 270° |
| 2026-05-05 15:45 | 41.69876 | 38.03238 | 36026 ft | 488 kts | 270° |
| 2026-05-05 15:45 | 41.70138 | 37.94159 | 36027 ft | 489 kts | 270° |
| 2026-05-05 15:46 | 41.70393 | 37.85066 | 36029 ft | 489 kts | 270° |
| 2026-05-05 15:46 | 41.70640 | 37.76023 | 36030 ft | 489 kts | 270° |
| 2026-05-05 15:47 | 41.70882 | 37.66919 | 36029 ft | 490 kts | 270° |
| 2026-05-05 15:47 | 41.71112 | 37.57805 | 36035 ft | 490 kts | 270° |
| 2026-05-05 15:48 | 41.71329 | 37.48750 | 36034 ft | 490 kts | 270° |
| 2026-05-05 15:48 | 41.71542 | 37.39629 | 36033 ft | 491 kts | 270° |
| 2026-05-05 15:49 | 41.71749 | 37.30500 | 36033 ft | 491 kts | 270° |
| 2026-05-05 15:49 | 41.71949 | 37.21366 | 36031 ft | 491 kts | 270° |
| 2026-05-05 15:50 | 41.72140 | 37.12298 | 36027 ft | 491 kts | 270° |
| 2026-05-05 15:50 | 41.72325 | 37.03171 | 36023 ft | 490 kts | 270° |
| 2026-05-05 15:51 | 41.72503 | 36.94041 | 36026 ft | 490 kts | 270° |
| 2026-05-05 15:51 | 41.72674 | 36.84912 | 36028 ft | 490 kts | 271° |
| 2026-05-05 15:52 | 41.72836 | 36.75858 | 36028 ft | 490 kts | 271° |
| 2026-05-05 15:52 | 41.72993 | 36.66730 | 36028 ft | 490 kts | 271° |
| 2026-05-05 15:53 | 41.73142 | 36.57598 | 36024 ft | 491 kts | 271° |
| 2026-05-05 15:53 | 41.73284 | 36.48466 | 36028 ft | 491 kts | 271° |
| 2026-05-05 15:54 | 41.73418 | 36.39392 | 36022 ft | 491 kts | 271° |
| 2026-05-05 15:54 | 41.73545 | 36.30255 | 36027 ft | 490 kts | 271° |
| 2026-05-05 15:55 | 41.73666 | 36.21123 | 36028 ft | 491 kts | 271° |
| 2026-05-05 15:55 | 41.73779 | 36.11987 | 36027 ft | 491 kts | 271° |
| 2026-05-05 15:56 | 41.73884 | 36.02912 | 36027 ft | 491 kts | 271° |
| 2026-05-05 15:56 | 41.73983 | 35.93781 | 36027 ft | 490 kts | 271° |
| 2026-05-05 15:57 | 41.74074 | 35.84659 | 36029 ft | 489 kts | 271° |
| 2026-05-05 15:57 | 41.74158 | 35.75557 | 36032 ft | 489 kts | 271° |
| 2026-05-05 15:58 | 41.74234 | 35.66507 | 36030 ft | 490 kts | 271° |
| 2026-05-05 15:58 | 41.74304 | 35.57381 | 36033 ft | 490 kts | 271° |
| 2026-05-05 15:59 | 41.74367 | 35.48254 | 36035 ft | 490 kts | 271° |
| 2026-05-05 15:59 | 41.74422 | 35.39129 | 36034 ft | 490 kts | 271° |
| 2026-05-05 16:00 | 41.74470 | 35.30074 | 36042 ft | 490 kts | 271° |
| 2026-05-05 16:00 | 41.74511 | 35.20965 | 36044 ft | 489 kts | 271° |
| 2026-05-05 16:01 | 41.74544 | 35.11853 | 36045 ft | 489 kts | 271° |
| 2026-05-05 16:01 | 41.74571 | 35.02757 | 36049 ft | 489 kts | 271° |
| 2026-05-05 16:02 | 41.74590 | 34.93726 | 36042 ft | 489 kts | 271° |
| 2026-05-05 16:02 | 41.74603 | 34.84627 | 36040 ft | 488 kts | 271° |
| 2026-05-05 16:03 | 41.74608 | 34.75529 | 36031 ft | 488 kts | 271° |
| 2026-05-05 16:03 | 41.74607 | 34.66438 | 36037 ft | 488 kts | 272° |
| 2026-05-05 16:04 | 41.75238 | 34.57489 | 36030 ft | 485 kts | 282° |
| 2026-05-05 16:04 | 41.76994 | 34.48806 | 36039 ft | 483 kts | 289° |
| 2026-05-05 16:05 | 41.79059 | 34.40237 | 36033 ft | 483 kts | 289° |
| 2026-05-05 16:05 | 41.81100 | 34.31658 | 36036 ft | 483 kts | 289° |
| 2026-05-05 16:06 | 41.83085 | 34.23138 | 36038 ft | 482 kts | 289° |
| 2026-05-05 16:06 | 41.85066 | 34.14551 | 36043 ft | 482 kts | 289° |
| 2026-05-05 16:07 | 41.87042 | 34.05958 | 36038 ft | 482 kts | 289° |
| 2026-05-05 16:07 | 41.89010 | 33.97373 | 36045 ft | 481 kts | 289° |
| 2026-05-05 16:08 | 41.90959 | 33.88839 | 36045 ft | 481 kts | 289° |
| 2026-05-05 16:08 | 41.92914 | 33.80249 | 36046 ft | 481 kts | 289° |
| 2026-05-05 16:09 | 41.94864 | 33.71652 | 36045 ft | 481 kts | 289° |
| 2026-05-05 16:09 | 41.96653 | 33.63051 | 36052 ft | 482 kts | 287° |
| 2026-05-05 16:10 | 41.98287 | 33.54311 | 36056 ft | 482 kts | 287° |
| 2026-05-05 16:10 | 41.99929 | 33.45578 | 36050 ft | 482 kts | 287° |
| 2026-05-05 16:11 | 42.01592 | 33.36857 | 36046 ft | 482 kts | 287° |
| 2026-05-05 16:12 | 42.04899 | 33.19472 | 36043 ft | 481 kts | 287° |
| 2026-05-05 16:13 | 42.09148 | 32.97672 | 36044 ft | 482 kts | 289° |
| 2026-05-05 16:13 | 42.10945 | 32.89042 | 36040 ft | 482 kts | 288° |
| 2026-05-05 16:14 | 42.14493 | 32.71633 | 36034 ft | 482 kts | 288° |
| 2026-05-05 16:15 | 42.15804 | 32.62761 | 36031 ft | 487 kts | 275° |
| 2026-05-05 16:15 | 42.15043 | 32.53664 | 36036 ft | 495 kts | 256° |
| 2026-05-05 16:16 | 42.10798 | 32.36041 | 36037 ft | 496 kts | 255° |
| 2026-05-05 16:17 | 42.07795 | 32.22713 | 36042 ft | 495 kts | 257° |
| 2026-05-05 16:18 | 42.05141 | 32.09356 | 36041 ft | 495 kts | 257° |
| 2026-05-05 16:19 | 42.02415 | 31.95960 | 36042 ft | 495 kts | 257° |
| 2026-05-05 16:19 | 41.99674 | 31.82628 | 36043 ft | 495 kts | 257° |
| 2026-05-05 16:20 | 41.96013 | 31.64774 | 36049 ft | 496 kts | 257° |
| 2026-05-05 16:22 | 41.91349 | 31.42565 | 36048 ft | 495 kts | 256° |
| 2026-05-05 16:23 | 41.87561 | 31.24800 | 36052 ft | 495 kts | 256° |
| 2026-05-05 16:23 | 41.84685 | 31.11371 | 34846 ft | 509 kts | 257° |
| 2026-05-05 16:24 | 41.83718 | 31.06870 | 34066 ft | 509 kts | 257° |
| 2026-05-05 16:24 | 41.82806 | 31.02288 | 33114 ft | 509 kts | 259° |
| 2026-05-05 16:24 | 41.81111 | 30.93092 | 31285 ft | 508 kts | 259° |
| 2026-05-05 16:25 | 41.80265 | 30.88488 | 30435 ft | 508 kts | 259° |
| 2026-05-05 16:25 | 41.78556 | 30.79413 | 29098 ft | 497 kts | 259° |
| 2026-05-05 16:25 | 41.77704 | 30.74957 | 28523 ft | 490 kts | 259° |
| 2026-05-05 16:26 | 41.76058 | 30.66373 | 28166 ft | 463 kts | 259° |
| 2026-05-05 16:26 | 41.74581 | 30.58245 | 27494 ft | 445 kts | 262° |
| 2026-05-05 16:27 | 41.73972 | 30.54212 | 27066 ft | 440 kts | 263° |
| 2026-05-05 16:27 | 41.73394 | 30.50212 | 26619 ft | 435 kts | 263° |
| 2026-05-05 16:27 | 41.72820 | 30.46251 | 26179 ft | 431 kts | 263° |
| 2026-05-05 16:27 | 41.72240 | 30.42327 | 25751 ft | 428 kts | 262° |
| 2026-05-05 16:28 | 41.71656 | 30.38446 | 25322 ft | 424 kts | 262° |
| 2026-05-05 16:28 | 41.71076 | 30.34642 | 24904 ft | 421 kts | 262° |
| 2026-05-05 16:28 | 41.70490 | 30.30821 | 24491 ft | 418 kts | 262° |
| 2026-05-05 16:28 | 41.69905 | 30.27019 | 24065 ft | 416 kts | 262° |
| 2026-05-05 16:29 | 41.69324 | 30.23250 | 23642 ft | 413 kts | 262° |
| 2026-05-05 16:29 | 41.68744 | 30.19494 | 23158 ft | 411 kts | 262° |
| 2026-05-05 16:29 | 41.68118 | 30.15785 | 22698 ft | 408 kts | 257° |
| 2026-05-05 16:29 | 41.67072 | 30.12255 | 22288 ft | 409 kts | 245° |
| 2026-05-05 16:30 | 41.65551 | 30.09058 | 21942 ft | 407 kts | 234° |
| 2026-05-05 16:30 | 41.63716 | 30.06261 | 21659 ft | 404 kts | 228° |
| 2026-05-05 16:30 | 41.61747 | 30.03574 | 21367 ft | 404 kts | 227° |
| 2026-05-05 16:30 | 41.59753 | 30.00935 | 20958 ft | 405 kts | 226° |
| 2026-05-05 16:31 | 41.57745 | 29.98299 | 20594 ft | 404 kts | 226° |
| 2026-05-05 16:31 | 41.55743 | 29.95681 | 20286 ft | 402 kts | 226° |
| 2026-05-05 16:31 | 41.53752 | 29.93091 | 20007 ft | 399 kts | 226° |
| 2026-05-05 16:31 | 41.51770 | 29.90519 | 19722 ft | 396 kts | 226° |
| 2026-05-05 16:32 | 41.49798 | 29.87968 | 19454 ft | 394 kts | 226° |
| 2026-05-05 16:32 | 41.47834 | 29.85433 | 19177 ft | 391 kts | 226° |
| 2026-05-05 16:32 | 41.45911 | 29.82957 | 18907 ft | 389 kts | 226° |
| 2026-05-05 16:32 | 41.43969 | 29.80461 | 18634 ft | 387 kts | 226° |
| 2026-05-05 16:33 | 41.42031 | 29.77978 | 18363 ft | 385 kts | 226° |
| 2026-05-05 16:33 | 41.40106 | 29.75515 | 18042 ft | 382 kts | 226° |
| 2026-05-05 16:33 | 41.38194 | 29.73072 | 17725 ft | 381 kts | 226° |
| 2026-05-05 16:33 | 41.36278 | 29.70624 | 17306 ft | 381 kts | 226° |
| 2026-05-05 16:34 | 41.34372 | 29.68191 | 16922 ft | 379 kts | 226° |
| 2026-05-05 16:34 | 41.32476 | 29.65774 | 16542 ft | 377 kts | 226° |
| 2026-05-05 16:34 | 41.30587 | 29.63367 | 16171 ft | 374 kts | 226° |
| 2026-05-05 16:34 | 41.28713 | 29.60982 | 15786 ft | 372 kts | 226° |
| 2026-05-05 16:35 | 41.26873 | 29.58643 | 15417 ft | 370 kts | 226° |
| 2026-05-05 16:35 | 41.25010 | 29.56278 | 15052 ft | 369 kts | 226° |
| 2026-05-05 16:35 | 41.23159 | 29.53931 | 14685 ft | 367 kts | 226° |
| 2026-05-05 16:35 | 41.21312 | 29.51594 | 14331 ft | 366 kts | 226° |
| 2026-05-05 16:36 | 41.19470 | 29.49265 | 13981 ft | 365 kts | 226° |
| 2026-05-05 16:36 | 41.17635 | 29.46947 | 13609 ft | 364 kts | 226° |
| 2026-05-05 16:36 | 41.15808 | 29.44643 | 13200 ft | 361 kts | 226° |
| 2026-05-05 16:36 | 41.13994 | 29.42358 | 12811 ft | 358 kts | 226° |
| 2026-05-05 16:37 | 41.12193 | 29.40092 | 12420 ft | 356 kts | 226° |
| 2026-05-05 16:37 | 41.10426 | 29.37872 | 12035 ft | 353 kts | 226° |
| 2026-05-05 16:37 | 41.08646 | 29.35642 | 11643 ft | 351 kts | 226° |
| 2026-05-05 16:37 | 41.06872 | 29.33424 | 11207 ft | 348 kts | 226° |
| 2026-05-05 16:38 | 41.05120 | 29.31234 | 10831 ft | 344 kts | 226° |
| 2026-05-05 16:38 | 41.03429 | 29.29128 | 10412 ft | 322 kts | 226° |
| 2026-05-05 16:38 | 41.01841 | 29.27167 | 10017 ft | 304 kts | 226° |
| 2026-05-05 16:38 | 41.00313 | 29.25286 | 9621 ft | 298 kts | 226° |
| 2026-05-05 16:39 | 40.98788 | 29.23402 | 9251 ft | 301 kts | 226° |
| 2026-05-05 16:39 | 40.97288 | 29.21546 | 8879 ft | 299 kts | 226° |
| 2026-05-05 16:39 | 40.95782 | 29.19677 | 8502 ft | 297 kts | 226° |
| 2026-05-05 16:39 | 40.94276 | 29.17807 | 8103 ft | 294 kts | 226° |
| 2026-05-05 16:40 | 40.92793 | 29.15962 | 7710 ft | 292 kts | 226° |
| 2026-05-05 16:40 | 40.91349 | 29.14107 | 7336 ft | 284 kts | 233° |
| 2026-05-05 16:40 | 40.90450 | 29.11859 | 6940 ft | 274 kts | 261° |
| 2026-05-05 16:40 | 40.90290 | 29.09439 | 6624 ft | 265 kts | 273° |
| 2026-05-05 16:41 | 40.90340 | 29.07026 | 6263 ft | 261 kts | 275° |
| 2026-05-05 16:41 | 40.90423 | 29.04635 | 5901 ft | 257 kts | 276° |
| 2026-05-05 16:41 | 40.90506 | 29.02336 | 5496 ft | 246 kts | 276° |
| 2026-05-05 16:41 | 40.90589 | 29.00089 | 5139 ft | 244 kts | 276° |
| 2026-05-05 16:42 | 40.90673 | 28.97873 | 4778 ft | 238 kts | 276° |
| 2026-05-05 16:42 | 40.90756 | 28.95732 | 4387 ft | 230 kts | 276° |
| 2026-05-05 16:42 | 40.90840 | 28.93633 | 4064 ft | 227 kts | 276° |
| 2026-05-05 16:42 | 40.90927 | 28.91547 | 4038 ft | 229 kts | 276° |
| 2026-05-05 16:43 | 40.91017 | 28.89446 | 4003 ft | 229 kts | 276° |
| 2026-05-05 16:43 | 40.91107 | 28.87346 | 3999 ft | 228 kts | 276° |
| 2026-05-05 16:43 | 40.91195 | 28.85280 | 3998 ft | 228 kts | 276° |
| 2026-05-05 16:43 | 40.91283 | 28.83187 | 4001 ft | 228 kts | 276° |
| 2026-05-05 16:44 | 40.91370 | 28.81094 | 4003 ft | 229 kts | 276° |
| 2026-05-05 16:44 | 40.91458 | 28.78983 | 4000 ft | 229 kts | 276° |
| 2026-05-05 16:44 | 40.91544 | 28.76882 | 4001 ft | 229 kts | 276° |
| 2026-05-05 16:44 | 40.91630 | 28.74783 | 4004 ft | 229 kts | 276° |
| 2026-05-05 16:45 | 40.91715 | 28.72678 | 4001 ft | 229 kts | 276° |
| 2026-05-05 16:45 | 40.92041 | 28.70668 | 3991 ft | 223 kts | 302° |
| 2026-05-05 16:45 | 40.93103 | 28.69235 | 4008 ft | 221 kts | 335° |
| 2026-05-05 16:45 | 40.94565 | 28.68837 | 4009 ft | 221 kts | 7° |
| 2026-05-05 16:46 | 40.95995 | 28.69550 | 4013 ft | 223 kts | 30° |
| 2026-05-05 16:46 | 40.97276 | 28.70722 | 4012 ft | 225 kts | 34° |
| 2026-05-05 16:46 | 40.98530 | 28.71953 | 4001 ft | 225 kts | 34° |
| 2026-05-05 16:46 | 40.99855 | 28.72966 | 3983 ft | 219 kts | 11° |
| 2026-05-05 16:47 | 41.01373 | 28.73198 | 4013 ft | 225 kts | 2° |
| 2026-05-05 16:47 | 41.02941 | 28.73276 | 4004 ft | 224 kts | 360° |
| 2026-05-05 16:47 | 41.04487 | 28.73275 | 4003 ft | 222 kts | 359° |
| 2026-05-05 16:47 | 41.06007 | 28.73245 | 4002 ft | 221 kts | 358° |
| 2026-05-05 16:48 | 41.07539 | 28.73209 | 4011 ft | 220 kts | 358° |
| 2026-05-05 16:48 | 41.09091 | 28.73173 | 3714 ft | 224 kts | 358° |
| 2026-05-05 16:48 | 41.10628 | 28.73138 | 3451 ft | 217 kts | 358° |
| 2026-05-05 16:48 | 41.12079 | 28.73103 | 3166 ft | 200 kts | 359° |
| 2026-05-05 16:49 | 41.13421 | 28.73072 | 2897 ft | 186 kts | 359° |
| 2026-05-05 16:49 | 41.14664 | 28.73043 | 2673 ft | 172 kts | 359° |
| 2026-05-05 16:49 | 41.15823 | 28.73017 | 2430 ft | 164 kts | 359° |
| 2026-05-05 16:49 | 41.16950 | 28.72991 | 2209 ft | 163 kts | 359° |
| 2026-05-05 16:50 | 41.18089 | 28.72963 | 2008 ft | 161 kts | 359° |
| 2026-05-05 16:50 | 41.19156 | 28.72941 | 1765 ft | 146 kts | 358° |
| 2026-05-05 16:50 | 41.20153 | 28.72916 | 1590 ft | 142 kts | 359° |
| 2026-05-05 16:50 | 41.21153 | 28.72894 | 1402 ft | 145 kts | 359° |
| 2026-05-05 16:51 | 41.22162 | 28.72870 | 1182 ft | 144 kts | 359° |
| 2026-05-05 16:51 | 41.23173 | 28.72846 | 977 ft | 145 kts | 359° |
| 2026-05-05 16:51 | 41.24177 | 28.72823 | 775 ft | 144 kts | 359° |
| 2026-05-05 16:51 | 41.25178 | 28.72799 | 588 ft | 143 kts | 359° |
| 2026-05-05 16:52 | 41.26139 | 28.72779 | 408 ft | 137 kts | 0° |
| 2026-05-05 16:52 | 41.27055 | 28.72768 | 337 ft | 121 kts | 360° |
| 2026-05-05 16:52 | 41.27758 | 28.72740 | 336 ft | 75 kts | 359° |
| 2026-05-05 16:52 | 41.28113 | 28.72734 | 334 ft | 38 kts | 359° |
| 2026-05-05 16:53 | 41.28327 | 28.72673 | 334 ft | 24 kts | 332° |
| 2026-05-05 16:53 | 41.28415 | 28.72607 | 334 ft | 7 kts | 329° |
| 2026-05-05 16:53 | 41.28459 | 28.72572 | 334 ft | 10 kts | 329° |
| 2026-05-05 16:53 | 41.28531 | 28.72467 | 335 ft | 19 kts | 279° |
| 2026-05-05 16:54 | 41.28527 | 28.72330 | 334 ft | 15 kts | 266° |
| 2026-05-05 16:54 | 41.28464 | 28.72246 | 334 ft | 15 kts | 185° |
| 2026-05-05 16:54 | 41.28340 | 28.72248 | 333 ft | 24 kts | 179° |
| 2026-05-05 16:54 | 41.28161 | 28.72253 | 334 ft | 26 kts | 179° |
| 2026-05-05 16:55 | 41.27981 | 28.72257 | 336 ft | 26 kts | 179° |
| 2026-05-05 16:55 | 41.27800 | 28.72262 | 334 ft | 26 kts | 179° |
| 2026-05-05 16:55 | 41.27634 | 28.72266 | 334 ft | 12 kts | 179° |
| 2026-05-05 16:55 | 41.27576 | 28.72211 | 337 ft | 12 kts | 254° |
| 2026-05-05 16:56 | 41.27572 | 28.72127 | 338 ft | 7 kts | 269° |
| 2026-05-05 16:56 | 41.27571 | 28.72080 | 338 ft | 3 kts | 269° |